createdAt,value
2022-09-14T00:00:33.250Z,79.97
2022-09-14T00:01:33.307Z,79.67
2022-09-14T00:02:33.382Z,79.27
2022-09-14T00:03:33.249Z,79.27
2022-09-14T00:04:33.219Z,79.17
2022-09-14T00:05:33.203Z,78.67
2022-09-14T00:06:33.202Z,78.50
2022-09-14T00:07:33.183Z,78.41
2022-09-14T00:08:33.170Z,78.47
2022-09-14T00:09:33.148Z,78.30
2022-09-14T00:10:33.132Z,78.50
2022-09-14T00:11:33.119Z,78.80
2022-09-14T00:12:33.143Z,78.91
2022-09-14T00:13:33.104Z,79.00
2022-09-14T00:14:33.093Z,79.21
2022-09-14T00:15:33.093Z,79.21
2022-09-14T00:16:33.151Z,79.30
2022-09-14T00:17:33.064Z,79.41
2022-09-14T00:18:33.064Z,79.50
2022-09-14T00:19:33.055Z,79.50
2022-09-14T00:20:33.046Z,79.30
2022-09-14T00:21:33.035Z,79.41
2022-09-14T00:22:33.025Z,79.41
2022-09-14T00:23:32.986Z,79.30
2022-09-14T00:24:32.996Z,79.41
2022-09-14T00:25:32.986Z,79.41
2022-09-14T00:26:32.968Z,79.41
2022-09-14T00:27:32.965Z,79.21
2022-09-14T00:28:32.967Z,79.00
2022-09-14T00:29:32.937Z,79.30
2022-09-14T00:30:32.937Z,79.00
2022-09-14T00:31:32.958Z,79.10
2022-09-14T00:32:32.918Z,79.21
2022-09-14T00:33:32.907Z,79.30
2022-09-14T00:34:32.896Z,79.21
2022-09-14T00:35:32.860Z,79.41
2022-09-14T00:36:32.870Z,79.30
2022-09-14T00:37:32.850Z,79.41
2022-09-14T00:38:32.850Z,79.60
2022-09-14T00:39:32.821Z,79.71
2022-09-14T00:40:32.908Z,79.60
2022-09-14T00:41:32.815Z,79.41
2022-09-14T00:42:32.791Z,79.60
2022-09-14T00:43:32.782Z,79.41
2022-09-14T00:44:32.772Z,79.50
2022-09-14T00:45:32.810Z,79.50
2022-09-14T00:46:32.743Z,79.50
2022-09-14T00:47:32.740Z,79.50
2022-09-14T00:48:32.740Z,79.30
2022-09-14T00:49:32.703Z,79.30
2022-09-14T00:50:32.704Z,79.41
2022-09-14T00:51:32.683Z,79.30
2022-09-14T00:52:32.703Z,79.30
2022-09-14T00:53:32.694Z,79.50
2022-09-14T00:54:32.693Z,79.60
2022-09-14T00:55:32.647Z,79.71
2022-09-14T00:56:32.637Z,79.41
2022-09-14T00:57:32.623Z,79.50
2022-09-14T00:58:32.624Z,79.50
2022-09-14T00:59:32.616Z,79.60
2022-09-14T01:00:32.626Z,79.60
2022-09-14T01:01:32.627Z,79.50
2022-09-14T01:02:32.642Z,79.60
2022-09-14T01:03:32.574Z,79.50
2022-09-14T01:04:32.567Z,79.60
2022-09-14T01:05:32.565Z,79.60
2022-09-14T01:06:32.536Z,79.60
2022-09-14T01:07:32.548Z,79.41
2022-09-14T01:08:32.527Z,79.41
2022-09-14T01:09:32.490Z,79.30
2022-09-14T01:10:32.491Z,79.21
2022-09-14T01:11:32.480Z,79.10
2022-09-14T01:12:32.468Z,78.80
2022-09-14T01:13:32.459Z,78.60
2022-09-14T01:14:32.461Z,78.70
2022-09-14T01:15:32.446Z,78.60
2022-09-14T01:16:32.484Z,78.20
2022-09-14T01:17:32.420Z,78.20
2022-09-14T01:18:32.402Z,78.20
2022-09-14T01:19:32.391Z,78.50
2022-09-14T01:20:32.383Z,78.60
2022-09-14T01:21:32.374Z,78.80
2022-09-14T01:22:32.372Z,79.41
2022-09-14T01:23:32.343Z,79.21
2022-09-14T01:24:32.342Z,79.60
2022-09-14T01:25:32.334Z,79.71
2022-09-14T01:26:32.374Z,79.91
2022-09-14T01:27:32.306Z,80.61
2022-09-14T01:28:32.312Z,80.71
2022-09-14T01:29:32.273Z,80.24
2022-09-14T01:30:32.285Z,80.65
2022-09-14T01:31:32.310Z,81.95
2022-09-14T01:32:32.262Z,81.55
2022-09-14T01:33:32.243Z,81.55
2022-09-14T01:34:32.235Z,81.18
2022-09-14T01:35:32.216Z,81.18
2022-09-14T01:36:32.196Z,81.09
2022-09-14T01:37:32.216Z,83.19
2022-09-14T01:38:32.199Z,84.19
2022-09-14T01:39:32.177Z,84.85
2022-09-14T01:40:32.186Z,86.46
2022-09-14T01:41:32.147Z,89.16
2022-09-14T01:42:32.128Z,88.20
2022-09-14T01:43:36.167Z,89.50
2022-09-14T01:44:32.119Z,90.61
2022-09-14T01:45:32.136Z,92.81
2022-09-14T01:46:32.080Z,94.12
2022-09-14T01:47:32.093Z,94.86
2022-09-14T01:48:32.094Z,94.36
2022-09-14T01:49:32.060Z,94.31
2022-09-14T01:50:32.064Z,94.71
2022-09-14T01:51:32.076Z,94.90
2022-09-14T01:52:32.035Z,95.36
2022-09-14T01:53:32.033Z,95.86
2022-09-14T01:54:32.026Z,96.45
2022-09-14T01:55:32.005Z,96.70
2022-09-14T01:56:32.555Z,97.31
2022-09-14T01:57:31.985Z,97.91
2022-09-14T01:58:31.987Z,98.31
2022-09-14T01:59:31.968Z,98.41
2022-09-14T02:00:32.037Z,98.61
2022-09-14T02:01:31.947Z,98.81
2022-09-14T02:02:31.998Z,98.76
2022-09-14T02:03:31.926Z,99.06
2022-09-14T02:04:31.916Z,99.16
2022-09-14T02:05:31.882Z,99.36
2022-09-14T02:06:31.888Z,99.66
2022-09-14T02:07:31.851Z,99.66
2022-09-14T02:08:31.891Z,99.87
2022-09-14T02:09:31.860Z,99.87
2022-09-14T02:10:31.830Z,99.99
2022-09-14T02:11:31.841Z,99.99
2022-09-14T02:12:31.829Z,99.99
2022-09-14T02:13:31.829Z,99.99
2022-09-14T02:14:31.831Z,99.99
2022-09-14T02:15:31.808Z,99.99
2022-09-14T02:16:31.885Z,99.99
2022-09-14T02:17:31.760Z,99.99
2022-09-14T02:18:31.770Z,99.99
2022-09-14T02:19:31.741Z,99.99
2022-09-14T02:20:31.759Z,99.99
2022-09-14T02:21:31.731Z,99.99
2022-09-14T02:22:31.732Z,99.99
2022-09-14T02:23:31.694Z,99.99
2022-09-14T02:24:31.670Z,99.99
2022-09-14T02:25:31.693Z,99.99
2022-09-14T02:26:31.691Z,99.99
2022-09-14T02:27:31.663Z,99.99
2022-09-14T02:28:31.664Z,99.99
2022-09-14T02:29:31.645Z,99.99
2022-09-14T02:30:31.633Z,99.99
2022-09-14T02:31:31.677Z,99.99
2022-09-14T02:32:31.634Z,99.99
2022-09-14T02:33:31.595Z,99.99
2022-09-14T02:34:31.559Z,99.99
2022-09-14T02:35:31.556Z,99.99
2022-09-14T02:36:31.576Z,99.99
2022-09-14T02:37:31.556Z,99.99
2022-09-14T02:38:31.575Z,99.99
2022-09-14T02:39:31.501Z,99.99
2022-09-14T02:40:31.595Z,99.99
2022-09-14T02:41:31.510Z,99.99
2022-09-14T02:42:31.517Z,99.99
2022-09-14T02:43:31.464Z,99.99
2022-09-14T02:44:31.488Z,99.99
2022-09-14T02:45:31.469Z,99.99
2022-09-14T02:46:31.499Z,99.99
2022-09-14T02:47:31.468Z,99.99
2022-09-14T02:48:31.416Z,99.99
2022-09-14T02:49:31.439Z,99.99
2022-09-14T02:50:31.438Z,99.99
2022-09-14T02:51:31.410Z,99.99
2022-09-14T02:52:31.374Z,99.99
2022-09-14T02:53:31.400Z,99.99
2022-09-14T02:54:31.394Z,99.99
2022-09-14T02:55:31.369Z,99.99
2022-09-14T02:56:31.337Z,99.99
2022-09-14T02:57:31.314Z,99.99
2022-09-14T02:58:31.330Z,99.99
2022-09-14T02:59:31.353Z,99.99
2022-09-14T03:00:31.385Z,99.99
2022-09-14T03:01:31.352Z,99.99
2022-09-14T03:02:31.304Z,99.99
2022-09-14T03:03:35.486Z,99.99
2022-09-14T03:04:31.258Z,99.99
2022-09-14T03:05:31.230Z,99.99
2022-09-14T03:06:31.259Z,99.99
2022-09-14T03:07:31.224Z,99.99
2022-09-14T03:08:31.241Z,99.99
2022-09-14T03:09:31.227Z,99.99
2022-09-14T03:10:31.225Z,99.99
2022-09-14T03:11:31.185Z,99.99
2022-09-14T03:12:31.192Z,99.99
2022-09-14T03:13:31.185Z,99.99
2022-09-14T03:14:31.176Z,99.99
2022-09-14T03:15:31.170Z,99.99
2022-09-14T03:16:31.203Z,99.99
2022-09-14T03:17:31.127Z,99.99
2022-09-14T03:18:31.113Z,99.99
2022-09-14T03:19:31.126Z,99.99
2022-09-14T03:20:31.108Z,99.99
2022-09-14T03:21:31.088Z,99.99
2022-09-14T03:22:31.080Z,99.99
2022-09-14T03:23:31.079Z,99.99
2022-09-14T03:24:31.043Z,99.99
2022-09-14T03:25:31.059Z,99.99
2022-09-14T03:26:31.004Z,99.99
2022-09-14T03:27:31.029Z,99.99
2022-09-14T03:28:31.039Z,99.99
2022-09-14T03:29:30.999Z,99.99
2022-09-14T03:30:30.988Z,99.99
2022-09-14T03:31:31.006Z,99.99
2022-09-14T03:32:30.955Z,99.99
2022-09-14T03:33:30.978Z,99.99
2022-09-14T03:34:30.970Z,99.99
2022-09-14T03:35:30.931Z,99.99
2022-09-14T03:36:30.979Z,99.99
2022-09-14T03:37:30.930Z,99.99
2022-09-14T03:38:30.905Z,99.99
2022-09-14T03:39:30.902Z,99.99
2022-09-14T03:40:31.022Z,99.99
2022-09-14T03:41:30.896Z,99.99
2022-09-14T03:42:30.872Z,99.99
2022-09-14T03:43:30.864Z,99.99
2022-09-14T03:44:30.854Z,99.99
2022-09-14T03:45:30.825Z,99.99
2022-09-14T03:46:30.888Z,99.99
2022-09-14T03:47:30.825Z,99.99
2022-09-14T03:48:30.835Z,99.99
2022-09-14T03:49:30.777Z,99.99
2022-09-14T03:50:30.750Z,99.99
2022-09-14T03:51:30.765Z,99.99
2022-09-14T03:52:30.767Z,99.99
2022-09-14T03:53:30.766Z,99.99
2022-09-14T03:54:30.746Z,99.99
2022-09-14T03:55:30.704Z,99.99
2022-09-14T03:56:30.717Z,99.99
2022-09-14T03:57:30.699Z,99.99
2022-09-14T03:58:30.705Z,99.99
2022-09-14T03:59:30.715Z,99.99
2022-09-14T04:00:30.668Z,99.99
2022-09-14T04:01:30.678Z,99.99
2022-09-14T04:02:30.751Z,99.99
2022-09-14T04:03:30.603Z,99.99
2022-09-14T04:04:30.650Z,99.99
2022-09-14T04:05:30.642Z,99.99
2022-09-14T04:06:30.595Z,99.99
2022-09-14T04:07:30.600Z,99.99
2022-09-14T04:08:30.592Z,99.99
2022-09-14T04:09:30.579Z,99.99
2022-09-14T04:10:30.568Z,99.99
2022-09-14T04:11:30.571Z,99.99
2022-09-14T04:12:30.552Z,99.99
2022-09-14T04:13:30.541Z,99.99
2022-09-14T04:14:30.509Z,99.99
2022-09-14T04:15:30.512Z,99.99
2022-09-14T04:16:30.548Z,99.99
2022-09-14T04:17:30.475Z,99.99
2022-09-14T04:18:30.475Z,99.99
2022-09-14T04:19:30.486Z,99.99
2022-09-14T04:20:30.463Z,99.99
2022-09-14T04:21:30.442Z,99.99
2022-09-14T04:22:30.444Z,99.99
2022-09-14T04:23:30.432Z,99.91
2022-09-14T04:24:31.020Z,99.06
2022-09-14T04:25:30.415Z,98.86
2022-09-14T04:26:30.395Z,99.56
2022-09-14T04:27:30.367Z,99.96
2022-09-14T04:28:30.373Z,99.99
2022-09-14T04:29:30.367Z,99.99
2022-09-14T04:30:30.349Z,99.99
2022-09-14T04:31:30.522Z,99.99
2022-09-14T04:32:34.179Z,99.99
2022-09-14T04:33:30.329Z,99.99
2022-09-14T04:34:30.316Z,99.99
2022-09-14T04:35:30.287Z,99.99
2022-09-14T04:36:30.278Z,99.99
2022-09-14T04:37:30.278Z,99.99
2022-09-14T04:38:30.802Z,99.99
2022-09-14T04:39:30.264Z,99.99
2022-09-14T04:40:30.268Z,99.99
2022-09-14T04:41:30.221Z,99.99
2022-09-14T04:42:30.237Z,99.99
2022-09-14T04:43:30.211Z,99.99
2022-09-14T04:44:30.178Z,99.99
2022-09-14T04:45:30.179Z,99.99
2022-09-14T04:46:30.252Z,99.99
2022-09-14T04:47:30.180Z,99.99
2022-09-14T04:48:30.161Z,99.99
2022-09-14T04:49:30.152Z,99.99
2022-09-14T04:50:30.138Z,99.99
2022-09-14T04:51:30.123Z,99.99
2022-09-14T04:52:30.111Z,99.99
2022-09-14T04:53:30.075Z,99.99
2022-09-14T04:54:30.123Z,99.99
2022-09-14T04:55:30.057Z,99.99
2022-09-14T04:56:30.058Z,99.99
2022-09-14T04:57:30.054Z,99.99
2022-09-14T04:58:30.054Z,99.99
2022-09-14T04:59:30.044Z,99.99
2022-09-14T05:00:30.024Z,99.99
2022-09-14T05:01:30.039Z,99.99
2022-09-14T05:02:30.073Z,99.99
2022-09-14T05:03:30.015Z,99.99
2022-09-14T05:04:29.994Z,99.99
2022-09-14T05:05:29.955Z,99.99
2022-09-14T05:06:29.956Z,99.99
2022-09-14T05:07:29.967Z,99.99
2022-09-14T05:08:29.948Z,99.99
2022-09-14T05:09:29.948Z,99.99
2022-09-14T05:10:29.917Z,99.99
2022-09-14T05:11:29.890Z,99.99
2022-09-14T05:12:29.999Z,99.99
2022-09-14T05:13:29.878Z,99.99
2022-09-14T05:14:29.898Z,99.99
2022-09-14T05:15:29.868Z,99.99
2022-09-14T05:16:29.951Z,99.99
2022-09-14T05:17:29.822Z,99.99
2022-09-14T05:18:29.869Z,99.99
2022-09-14T05:19:29.827Z,99.99
2022-09-14T05:20:29.783Z,99.99
2022-09-14T05:21:29.810Z,99.99
2022-09-14T05:22:29.811Z,99.99
2022-09-14T05:23:29.871Z,99.99
2022-09-14T05:24:29.780Z,99.99
2022-09-14T05:25:29.767Z,99.99
2022-09-14T05:26:29.771Z,99.99
2022-09-14T05:27:29.762Z,99.99
2022-09-14T05:28:29.695Z,99.99
2022-09-14T05:29:29.745Z,99.99
2022-09-14T05:30:29.686Z,99.99
2022-09-14T05:31:29.811Z,99.99
2022-09-14T05:32:29.722Z,99.99
2022-09-14T05:33:29.663Z,99.99
2022-09-14T05:34:29.762Z,99.99
2022-09-14T05:35:30.062Z,99.99
2022-09-14T05:36:29.675Z,99.99
2022-09-14T05:37:29.665Z,99.99
2022-09-14T05:38:29.630Z,99.99
2022-09-14T05:39:29.635Z,99.99
2022-09-14T05:40:29.678Z,99.99
2022-09-14T05:41:29.585Z,99.99
2022-09-14T05:42:29.575Z,99.99
2022-09-14T05:43:29.571Z,99.99
2022-09-14T05:44:29.554Z,99.99
2022-09-14T05:45:29.532Z,99.99
2022-09-14T05:46:29.566Z,99.99
2022-09-14T05:47:29.538Z,99.99
2022-09-14T05:48:29.516Z,99.99
2022-09-14T05:49:29.517Z,99.99
2022-09-14T05:50:29.514Z,99.99
2022-09-14T05:51:29.481Z,99.99
2022-09-14T05:52:29.461Z,99.99
2022-09-14T05:53:29.478Z,99.99
2022-09-14T05:54:29.478Z,99.99
2022-09-14T05:55:29.446Z,99.99
2022-09-14T05:56:29.437Z,99.99
2022-09-14T05:57:29.425Z,99.99
2022-09-14T05:58:29.421Z,99.99
2022-09-14T05:59:29.419Z,99.99
2022-09-14T06:00:29.374Z,99.99
2022-09-14T06:01:29.459Z,99.99
2022-09-14T06:02:29.360Z,99.99
2022-09-14T06:03:29.377Z,99.99
2022-09-14T06:04:29.351Z,99.99
2022-09-14T06:05:29.358Z,99.99
2022-09-14T06:06:29.350Z,99.99
2022-09-14T06:07:29.303Z,99.99
2022-09-14T06:08:29.292Z,99.99
2022-09-14T06:09:33.086Z,99.99
2022-09-14T06:10:29.266Z,99.99
2022-09-14T06:11:29.273Z,99.99
2022-09-14T06:12:29.273Z,99.99
2022-09-14T06:13:29.309Z,99.99
2022-09-14T06:14:29.235Z,99.99
2022-09-14T06:15:29.228Z,99.99
2022-09-14T06:16:29.266Z,99.99
2022-09-14T06:17:29.242Z,99.99
2022-09-14T06:18:30.658Z,99.99
2022-09-14T06:19:29.187Z,99.99
2022-09-14T06:20:30.357Z,99.99
2022-09-14T06:21:29.176Z,99.99
2022-09-14T06:22:29.865Z,99.99
2022-09-14T06:23:29.162Z,99.99
2022-09-14T06:24:30.148Z,99.99
2022-09-14T06:25:29.157Z,99.99
2022-09-14T06:26:30.729Z,99.99
2022-09-14T06:27:29.124Z,99.99
2022-09-14T06:28:30.121Z,99.99
2022-09-14T06:29:29.062Z,99.99
2022-09-14T06:30:29.837Z,99.99
2022-09-14T06:31:29.069Z,99.92
2022-09-14T06:32:29.107Z,99.99
2022-09-14T06:33:29.039Z,99.99
2022-09-14T06:34:29.004Z,99.99
2022-09-14T06:35:29.010Z,99.99
2022-09-14T06:36:28.998Z,99.82
2022-09-14T06:37:29.010Z,99.72
2022-09-14T06:38:28.981Z,99.72
2022-09-14T06:39:28.963Z,99.72
2022-09-14T06:40:28.997Z,99.68
2022-09-14T06:41:28.966Z,99.77
2022-09-14T06:42:28.943Z,99.77
2022-09-14T06:43:28.926Z,99.77
2022-09-14T06:44:28.923Z,99.68
2022-09-14T06:45:28.935Z,99.27
2022-09-14T06:46:28.892Z,99.27
2022-09-14T06:47:28.855Z,99.17
2022-09-14T06:48:28.904Z,99.17
2022-09-14T06:49:28.863Z,99.27
2022-09-14T06:50:28.834Z,99.27
2022-09-14T06:51:28.856Z,99.27
2022-09-14T06:52:33.554Z,99.22
2022-09-14T06:53:29.815Z,99.22
2022-09-14T06:54:28.815Z,99.22
2022-09-14T06:55:28.824Z,99.13
2022-09-14T06:56:28.776Z,99.02
2022-09-14T06:57:28.765Z,99.02
2022-09-14T06:58:28.767Z,98.78
2022-09-14T06:59:28.762Z,98.78
2022-09-14T07:00:28.701Z,98.68
2022-09-14T07:01:28.741Z,98.28
2022-09-14T07:02:28.900Z,98.38
2022-09-14T07:03:28.747Z,98.18
2022-09-14T07:04:28.689Z,97.78
2022-09-14T07:05:28.717Z,97.83
2022-09-14T07:06:28.670Z,97.73
2022-09-14T07:07:28.661Z,97.63
2022-09-14T07:08:28.660Z,97.53
2022-09-14T07:09:28.643Z,97.53
2022-09-14T07:10:28.594Z,97.23
2022-09-14T07:11:28.630Z,97.23
2022-09-14T07:12:28.610Z,97.08
2022-09-14T07:13:28.602Z,97.18
2022-09-14T07:14:32.241Z,96.98
2022-09-14T07:15:28.592Z,97.08
2022-09-14T07:16:28.576Z,96.68
2022-09-14T07:17:28.544Z,96.58
2022-09-14T07:18:28.532Z,96.58
2022-09-14T07:19:28.542Z,96.68
2022-09-14T07:20:28.539Z,96.68
2022-09-14T07:21:28.509Z,96.88
2022-09-14T07:22:28.482Z,96.58
2022-09-14T07:23:28.483Z,96.38
2022-09-14T07:24:28.446Z,96.34
2022-09-14T07:25:28.524Z,96.34
2022-09-14T07:26:28.434Z,96.44
2022-09-14T07:27:28.434Z,96.44
2022-09-14T07:28:28.446Z,96.34
2022-09-14T07:29:28.417Z,96.34
2022-09-14T07:30:28.455Z,96.23
2022-09-14T07:31:28.523Z,96.14
2022-09-14T07:32:28.349Z,96.14
2022-09-14T07:33:28.366Z,96.04
2022-09-14T07:34:28.359Z,95.84
2022-09-14T07:35:28.346Z,96.14
2022-09-14T07:36:31.587Z,96.29
2022-09-14T07:37:29.314Z,95.94
2022-09-14T07:38:48.576Z,95.99
2022-09-14T07:39:29.987Z,95.89
2022-09-14T07:40:28.414Z,95.59
2022-09-14T07:41:28.991Z,95.59
2022-09-14T07:42:28.283Z,95.79
2022-09-14T07:43:28.969Z,95.29
2022-09-14T07:44:28.262Z,95.29
2022-09-14T07:45:28.520Z,95.29
2022-09-14T07:46:28.321Z,95.29
2022-09-14T07:47:29.280Z,95.04
2022-09-14T07:48:28.241Z,94.54
2022-09-14T07:49:28.930Z,94.54
2022-09-14T07:50:28.197Z,94.15
2022-09-14T07:51:28.281Z,93.85
2022-09-14T07:52:28.182Z,93.80
2022-09-14T07:53:28.362Z,93.90
2022-09-14T07:54:28.172Z,93.50
2022-09-14T07:55:28.155Z,93.10
2022-09-14T07:56:28.131Z,93.20
2022-09-14T07:57:52.293Z,93.50
2022-09-14T07:58:29.111Z,93.40
2022-09-14T07:59:36.935Z,92.90
2022-09-14T08:00:29.064Z,92.76
2022-09-14T08:01:28.092Z,92.66
2022-09-14T08:02:28.148Z,92.76
2022-09-14T08:03:28.046Z,92.16
2022-09-14T08:04:28.055Z,91.46
2022-09-14T08:05:28.033Z,91.36
2022-09-14T08:06:28.006Z,91.52
2022-09-14T08:07:28.024Z,91.61
2022-09-14T08:08:28.009Z,91.11
2022-09-14T08:09:27.997Z,91.31
2022-09-14T08:10:27.976Z,91.11
2022-09-14T08:11:27.947Z,89.58
2022-09-14T08:12:27.958Z,89.68
2022-09-14T08:13:27.957Z,89.68
2022-09-14T08:14:27.949Z,89.38
2022-09-14T08:15:28.737Z,89.68
2022-09-14T08:16:27.961Z,89.18
2022-09-14T08:17:27.920Z,88.24
2022-09-14T08:18:27.881Z,89.23
2022-09-14T08:19:27.870Z,89.14
2022-09-14T08:20:27.846Z,88.93
2022-09-14T08:21:27.850Z,88.40
2022-09-14T08:22:27.850Z,88.79
2022-09-14T08:23:27.839Z,88.59
2022-09-14T08:24:27.840Z,88.10
2022-09-14T08:25:27.801Z,87.99
2022-09-14T08:26:27.782Z,87.55
2022-09-14T08:27:27.829Z,87.65
2022-09-14T08:28:27.772Z,87.65
2022-09-14T08:29:27.791Z,87.16
2022-09-14T08:30:27.737Z,86.76
2022-09-14T08:31:27.787Z,86.96
2022-09-14T08:32:27.763Z,85.76
2022-09-14T08:33:27.734Z,85.16
2022-09-14T08:34:27.735Z,85.06
2022-09-14T08:35:56.145Z,85.62
2022-09-14T08:36:28.674Z,84.63
2022-09-14T08:37:27.695Z,84.92
2022-09-14T08:38:27.706Z,85.42
2022-09-14T08:39:27.687Z,85.32
2022-09-14T08:40:27.721Z,84.92
2022-09-14T08:41:27.626Z,84.86
2022-09-14T08:42:27.616Z,84.77
2022-09-14T08:43:27.627Z,84.47
2022-09-14T08:44:27.627Z,84.17
2022-09-14T08:45:27.637Z,84.83
2022-09-14T08:46:27.578Z,84.33
2022-09-14T08:47:27.587Z,84.03
2022-09-14T08:48:27.554Z,84.43
2022-09-14T08:49:27.620Z,84.29
2022-09-14T08:50:27.623Z,84.39
2022-09-14T08:51:27.632Z,82.79
2022-09-14T08:52:28.549Z,83.39
2022-09-14T08:53:27.557Z,83.29
2022-09-14T08:54:28.202Z,83.75
2022-09-14T08:55:27.520Z,82.56
2022-09-14T08:56:27.601Z,82.65
2022-09-14T08:57:27.445Z,81.82
2022-09-14T08:58:28.664Z,81.72
2022-09-14T08:59:27.435Z,81.82
2022-09-14T09:00:28.102Z,81.42
2022-09-14T09:01:27.467Z,81.98
2022-09-14T09:02:27.897Z,81.18
2022-09-14T09:03:27.502Z,80.88
2022-09-14T09:04:27.445Z,80.43
2022-09-14T09:05:27.394Z,80.43
2022-09-14T09:06:27.411Z,81.02
2022-09-14T09:07:27.362Z,80.73
2022-09-14T09:08:27.376Z,81.06
2022-09-14T09:09:27.373Z,82.35
2022-09-14T09:10:27.327Z,81.36
2022-09-14T09:11:27.449Z,81.66
2022-09-14T09:12:27.297Z,81.86
2022-09-14T09:13:27.316Z,82.26
2022-09-14T09:14:27.276Z,82.46
2022-09-14T09:15:27.278Z,82.16
2022-09-14T09:16:27.319Z,81.36
2022-09-14T09:17:27.246Z,81.36
2022-09-14T09:18:27.258Z,82.06
2022-09-14T09:19:28.829Z,81.56
2022-09-14T09:20:27.202Z,81.23
2022-09-14T09:21:27.199Z,80.63
2022-09-14T09:22:27.192Z,80.73
2022-09-14T09:23:27.209Z,80.53
2022-09-14T09:24:27.161Z,79.53
2022-09-14T09:25:27.181Z,79.69
2022-09-14T09:26:27.152Z,79.30
2022-09-14T09:27:27.139Z,78.76
2022-09-14T09:28:27.118Z,79.06
2022-09-14T09:29:27.122Z,78.63
2022-09-14T09:30:27.096Z,77.63
2022-09-14T09:31:27.140Z,76.80
2022-09-14T09:32:27.104Z,77.20
2022-09-14T09:33:27.092Z,76.76
2022-09-14T09:34:27.062Z,76.07
2022-09-14T09:35:27.071Z,75.97
2022-09-14T09:36:27.584Z,75.63
2022-09-14T09:37:27.044Z,75.63
2022-09-14T09:38:27.034Z,75.44
2022-09-14T09:39:27.025Z,75.04
2022-09-14T09:40:27.069Z,75.27
2022-09-14T09:41:26.987Z,75.48
2022-09-14T09:42:27.009Z,76.07
2022-09-14T09:43:47.969Z,75.97
2022-09-14T09:44:27.976Z,76.27
2022-09-14T09:45:26.957Z,76.27
2022-09-14T09:46:26.981Z,75.74
2022-09-14T09:47:26.936Z,75.63
2022-09-14T09:48:26.908Z,74.88
2022-09-14T09:49:26.892Z,74.88
2022-09-14T09:50:26.917Z,74.78
2022-09-14T09:51:26.853Z,74.08
2022-09-14T09:52:26.890Z,74.78
2022-09-14T09:53:26.869Z,74.08
2022-09-14T09:54:26.871Z,74.48
2022-09-14T09:55:26.860Z,73.99
2022-09-14T09:56:26.831Z,74.38
2022-09-14T09:57:26.806Z,74.68
2022-09-14T09:58:26.841Z,74.88
2022-09-14T09:59:27.794Z,74.68
2022-09-14T10:00:26.867Z,74.65
2022-09-14T10:01:26.846Z,74.55
2022-09-14T10:02:26.871Z,73.85
2022-09-14T10:03:26.763Z,73.75
2022-09-14T10:04:26.753Z,73.25
2022-09-14T10:05:27.440Z,73.75
2022-09-14T10:06:26.724Z,74.05
2022-09-14T10:07:27.379Z,73.55
2022-09-14T10:08:26.704Z,72.92
2022-09-14T10:09:27.406Z,72.92
2022-09-14T10:10:26.694Z,72.92
2022-09-14T10:11:26.686Z,72.63
2022-09-14T10:12:26.645Z,71.80
2022-09-14T10:13:26.636Z,71.44
2022-09-14T10:14:26.676Z,71.01
2022-09-14T10:15:26.607Z,71.20
2022-09-14T10:16:26.650Z,71.50
2022-09-14T10:17:26.563Z,71.31
2022-09-14T10:18:26.620Z,71.20
2022-09-14T10:19:26.552Z,70.57
2022-09-14T10:20:26.596Z,70.18
2022-09-14T10:21:26.558Z,70.57
2022-09-14T10:22:26.857Z,70.38
2022-09-14T10:23:26.560Z,70.28
2022-09-14T10:24:26.530Z,70.48
2022-09-14T10:25:26.511Z,69.29
2022-09-14T10:26:26.520Z,69.39
2022-09-14T10:27:26.475Z,69.69
2022-09-14T10:28:26.509Z,69.59
2022-09-14T10:29:26.492Z,69.49
2022-09-14T10:30:26.466Z,69.56
2022-09-14T10:31:26.462Z,69.35
2022-09-14T10:32:26.454Z,69.35
2022-09-14T10:33:26.452Z,69.42
2022-09-14T10:34:26.414Z,69.42
2022-09-14T10:35:26.414Z,68.53
2022-09-14T10:36:26.378Z,67.94
2022-09-14T10:37:26.379Z,67.35
2022-09-14T10:38:26.685Z,67.35
2022-09-14T10:39:26.516Z,67.74
2022-09-14T10:40:26.394Z,67.25
2022-09-14T10:41:26.324Z,67.35
2022-09-14T10:42:26.348Z,67.25
2022-09-14T10:43:26.356Z,67.74
2022-09-14T10:44:26.310Z,67.80
2022-09-14T10:45:26.297Z,67.71
2022-09-14T10:46:26.340Z,67.51
2022-09-14T10:47:26.309Z,67.91
2022-09-14T10:48:26.339Z,67.51
2022-09-14T10:49:26.990Z,67.61
2022-09-14T10:50:26.299Z,67.32
2022-09-14T10:51:26.368Z,68.01
2022-09-14T10:52:26.260Z,67.58
2022-09-14T10:53:26.322Z,67.97
2022-09-14T10:54:26.264Z,67.77
2022-09-14T10:55:26.901Z,67.87
2022-09-14T10:56:26.204Z,67.35
2022-09-14T10:57:26.452Z,66.66
2022-09-14T10:58:26.183Z,66.85
2022-09-14T10:59:26.633Z,66.75
2022-09-14T11:00:26.193Z,66.56
2022-09-14T11:01:26.926Z,65.37
2022-09-14T11:02:26.232Z,65.67
2022-09-14T11:03:26.145Z,66.06
2022-09-14T11:04:26.116Z,65.86
2022-09-14T11:05:26.236Z,65.70
2022-09-14T11:06:26.135Z,66.16
2022-09-14T11:07:26.075Z,66.06
2022-09-14T11:08:26.038Z,64.98
2022-09-14T11:09:26.069Z,65.08
2022-09-14T11:10:26.083Z,65.17
2022-09-14T11:11:26.027Z,65.17
2022-09-14T11:12:26.699Z,65.08
2022-09-14T11:13:26.007Z,64.75
2022-09-14T11:14:26.958Z,64.45
2022-09-14T11:15:25.988Z,64.45
2022-09-14T11:16:26.068Z,63.73
2022-09-14T11:17:25.969Z,64.06
2022-09-14T11:18:25.940Z,64.42
2022-09-14T11:19:25.940Z,63.73
2022-09-14T11:20:25.928Z,63.14
2022-09-14T11:21:25.911Z,63.21
2022-09-14T11:22:25.942Z,63.21
2022-09-14T11:23:25.910Z,63.11
2022-09-14T11:24:25.894Z,62.52
2022-09-14T11:25:25.877Z,62.62
2022-09-14T11:26:25.882Z,63.57
2022-09-14T11:27:25.827Z,61.82
2022-09-14T11:28:25.873Z,62.52
2022-09-14T11:29:25.844Z,62.81
2022-09-14T11:30:25.800Z,61.53
2022-09-14T11:31:25.834Z,61.69
2022-09-14T11:32:25.812Z,61.90
2022-09-14T11:33:30.404Z,61.50
2022-09-14T11:34:26.776Z,62.19
2022-09-14T11:35:25.750Z,61.00
2022-09-14T11:36:25.777Z,61.30
2022-09-14T11:37:25.746Z,60.71
2022-09-14T11:38:25.749Z,60.31
2022-09-14T11:39:25.718Z,60.29
2022-09-14T11:40:25.752Z,59.89
2022-09-14T11:41:25.693Z,59.80
2022-09-14T11:42:25.709Z,60.09
2022-09-14T11:43:25.740Z,60.19
2022-09-14T11:44:25.670Z,59.70
2022-09-14T11:45:25.731Z,60.06
2022-09-14T11:46:25.778Z,58.85
2022-09-14T11:47:25.672Z,58.75
2022-09-14T11:48:42.247Z,58.56
2022-09-14T11:49:26.624Z,58.04
2022-09-14T11:50:25.622Z,57.45
2022-09-14T11:51:25.603Z,57.74
2022-09-14T11:52:25.622Z,58.14
2022-09-14T11:53:25.584Z,58.16
2022-09-14T11:54:25.569Z,58.36
2022-09-14T11:55:25.556Z,58.14
2022-09-14T11:56:25.555Z,57.45
2022-09-14T11:57:25.525Z,57.74
2022-09-14T11:58:25.534Z,58.56
2022-09-14T11:59:25.516Z,58.56
2022-09-14T12:00:25.516Z,59.27
2022-09-14T12:01:25.486Z,59.60
2022-09-14T12:02:25.487Z,60.02
2022-09-14T12:03:25.531Z,59.26
2022-09-14T12:04:25.457Z,59.56
2022-09-14T12:05:25.458Z,59.98
2022-09-14T12:06:25.453Z,60.38
2022-09-14T12:07:25.440Z,60.97
2022-09-14T12:08:25.458Z,61.10
2022-09-14T12:09:25.399Z,61.39
2022-09-14T12:10:25.401Z,61.39
2022-09-14T12:11:25.370Z,61.79
2022-09-14T12:12:25.392Z,62.21
2022-09-14T12:13:25.382Z,61.91
2022-09-14T12:14:25.371Z,62.41
2022-09-14T12:15:25.331Z,62.12
2022-09-14T12:16:25.347Z,62.41
2022-09-14T12:17:41.265Z,62.41
2022-09-14T12:18:26.315Z,62.51
2022-09-14T12:19:25.314Z,62.51
2022-09-14T12:20:25.293Z,62.12
2022-09-14T12:21:25.277Z,62.21
2022-09-14T12:22:25.265Z,62.14
2022-09-14T12:23:25.261Z,62.54
2022-09-14T12:24:25.246Z,62.63
2022-09-14T12:25:25.237Z,62.54
2022-09-14T12:26:25.224Z,63.03
2022-09-14T12:27:25.208Z,62.74
2022-09-14T12:28:25.216Z,62.71
2022-09-14T12:29:25.201Z,62.74
2022-09-14T12:30:25.206Z,62.44
2022-09-14T12:31:25.218Z,62.63
2022-09-14T12:32:25.163Z,62.84
2022-09-14T12:33:25.149Z,63.03
2022-09-14T12:34:25.161Z,63.13
2022-09-14T12:35:25.124Z,63.13
2022-09-14T12:36:25.120Z,63.23
2022-09-14T12:37:25.784Z,63.46
2022-09-14T12:38:25.131Z,63.56
2022-09-14T12:39:25.786Z,63.46
2022-09-14T12:40:25.170Z,63.56
2022-09-14T12:41:25.114Z,63.85
2022-09-14T12:42:25.544Z,63.68
2022-09-14T12:43:25.073Z,64.28
2022-09-14T12:44:25.043Z,64.18
2022-09-14T12:45:25.065Z,64.28
2022-09-14T12:46:25.829Z,64.18
2022-09-14T12:47:25.057Z,65.27
2022-09-14T12:48:25.705Z,64.61
2022-09-14T12:49:24.995Z,64.90
2022-09-14T12:50:26.110Z,65.40
2022-09-14T12:51:25.021Z,65.59
2022-09-14T12:52:26.577Z,67.11